Pagrindinis puslapis
METAR-TAF:

METAR-TAF

Oro uostai :

Torsby, Švedija

platuma: 60-09-17N, ilguma: 12-59-40E, Aukštis: 120 m

Dabartinis oras

Ataskaita buvo paskelbta 35 minutes, ne 10:20 UTC
Vėjas 5 kt iš Vakarų/Šiaurės Vakarų
Temperatūra 2°C
Drėgmė 93%
Slėgis 980 hPa
Matomumas: 7000 m
lietus

METAR: ESST 091020Z AUTO 30005KT 7000 RA BKN018/// OVC022/// 02/01 Q0980

Laikas: 11:55 (10:55 UTC)


TAF: trūkstamas

Orai ataskaitas ir orų prognozės (METAR, TAF).

turimą stotys yra geltonos ir raudonos taškus žemėlapyje.

Perkelti pele per norėdami pamatyti stoties vardą.

Tada spustelėkite, norėdami matyti oro stebėjimo ir prognozės.

Norėdami pakeisti žemėlapį: spustelėkite ant žalios mygtukų su juodo kryžiaus žemyn,; žalią mygtuką su brūkšneliu, jei norite nutolinti; arba žalių rodyklių gretimoms žemėlapius.


METAR-TAF: